createdAt,value
2023-03-02T00:00:24.000Z,1026.8
2023-03-02T00:01:41.000Z,1026.8
2023-03-02T00:02:57.000Z,1026.8
2023-03-02T00:04:12.000Z,1026.8
2023-03-02T00:05:28.000Z,1026.8
2023-03-02T00:06:44.000Z,1026.8
2023-03-02T00:08:00.000Z,1026.8
2023-03-02T00:09:16.000Z,1026.8
2023-03-02T00:10:33.332Z,1026.8
2023-03-02T00:11:49.000Z,1026.8
2023-03-02T00:13:05.000Z,1026.8
2023-03-02T00:14:20.000Z,1026.8
2023-03-02T00:15:35.000Z,1026.8
2023-03-02T00:16:51.000Z,1026.8
2023-03-02T00:18:08.000Z,1026.8
2023-03-02T00:20:40.000Z,1026.8
2023-03-02T00:21:56.000Z,1026.8
2023-03-02T00:23:12.000Z,1026.7
2023-03-02T00:24:28.000Z,1026.7
2023-03-02T00:25:44.000Z,1026.7
2023-03-02T00:27:01.000Z,1026.7
2023-03-02T00:28:17.000Z,1026.8
2023-03-02T00:29:33.000Z,1026.7
2023-03-02T00:30:49.000Z,1026.6
2023-03-02T00:32:04.000Z,1026.7
2023-03-02T00:33:20.000Z,1026.6
2023-03-02T00:34:37.157Z,1026.6
2023-03-02T00:35:53.000Z,1026.7
2023-03-02T00:37:09.000Z,1026.6
2023-03-02T00:38:25.000Z,1026.6
2023-03-02T00:39:41.000Z,1026.6
2023-03-02T00:40:57.000Z,1026.6
2023-03-02T00:42:12.000Z,1026.6
2023-03-02T00:43:28.221Z,1026.6
2023-03-02T00:44:44.371Z,1026.6
2023-03-02T00:45:59.000Z,1026.5
2023-03-02T00:47:14.000Z,1026.5
2023-03-02T00:48:30.000Z,1026.5
2023-03-02T00:49:46.000Z,1026.4
2023-03-02T00:51:02.000Z,1026.4
2023-03-02T00:52:19.000Z,1026.4
2023-03-02T00:53:35.000Z,1026.4
2023-03-02T00:54:51.000Z,1026.4
2023-03-02T00:56:07.000Z,1026.5
2023-03-02T00:57:23.000Z,1026.5
2023-03-02T00:58:40.016Z,1026.4
2023-03-02T00:59:56.159Z,1026.4
2023-03-02T01:01:12.309Z,1026.5
2023-03-02T01:02:28.000Z,1026.4
2023-03-02T01:03:43.000Z,1026.5
2023-03-02T01:04:59.000Z,1026.5
2023-03-02T01:06:15.000Z,1026.5
2023-03-02T01:07:31.000Z,1026.5
2023-03-02T01:08:47.000Z,1026.5
2023-03-02T01:10:04.000Z,1026.4
2023-03-02T01:11:20.000Z,1026.4
2023-03-02T01:12:35.000Z,1026.4
2023-03-02T01:13:50.826Z,1026.4
2023-03-02T01:15:05.000Z,1026.4
2023-03-02T01:16:20.000Z,1026.3
2023-03-02T01:17:37.000Z,1026.3
2023-03-02T01:18:53.446Z,1026.4
2023-03-02T01:20:09.000Z,1026.4
2023-03-02T01:21:25.000Z,1026.2
2023-03-02T01:22:41.897Z,1026.2
2023-03-02T01:23:57.000Z,1026.2
2023-03-02T01:25:13.000Z,1026.3
2023-03-02T01:26:30.326Z,1026.2
2023-03-02T01:27:46.000Z,1026.2
2023-03-02T01:29:02.000Z,1026.2
2023-03-02T01:30:18.000Z,1026.2
2023-03-02T01:31:34.000Z,1026.2
2023-03-02T01:32:49.000Z,1026.2
2023-03-02T01:34:05.000Z,1026.3
2023-03-02T01:35:22.000Z,1026.2
2023-03-02T01:36:38.000Z,1026.2
2023-03-02T01:37:54.000Z,1026.3
2023-03-02T01:39:10.802Z,1026.3
2023-03-02T01:40:26.000Z,1026.2
2023-03-02T01:41:41.000Z,1026.2
2023-03-02T01:42:57.000Z,1026.2
2023-03-02T01:44:12.000Z,1026.2
2023-03-02T01:45:28.593Z,1026.2
2023-03-02T01:46:44.000Z,1026.1
2023-03-02T01:48:00.000Z,1026.1
2023-03-02T01:49:16.000Z,1026.1
2023-03-02T01:50:32.201Z,1026
2023-03-02T01:51:47.000Z,1026.1
2023-03-02T01:53:03.504Z,1026.1
2023-03-02T01:54:19.000Z,1026
2023-03-02T01:56:51.000Z,1026
2023-03-02T01:58:07.000Z,1026
2023-03-02T01:59:24.000Z,1026
2023-03-02T02:00:40.386Z,1026
2023-03-02T02:01:56.531Z,1026
2023-03-02T02:03:12.000Z,1026
2023-03-02T02:04:28.000Z,1026
2023-03-02T02:05:44.000Z,1026.1
2023-03-02T02:07:00.000Z,1026
2023-03-02T02:08:16.000Z,1026
2023-03-02T02:09:32.422Z,1026
2023-03-02T02:10:48.000Z,1026
2023-03-02T02:12:04.000Z,1026
2023-03-02T02:13:20.000Z,1026
2023-03-02T02:14:36.000Z,1026
2023-03-02T02:15:52.000Z,1026
2023-03-02T02:17:09.000Z,1026
2023-03-02T02:18:24.471Z,1026
2023-03-02T02:19:39.000Z,1026
2023-03-02T02:20:55.000Z,1026
2023-03-02T02:22:11.922Z,1026
2023-03-02T02:23:27.000Z,1026
2023-03-02T02:24:43.000Z,1025.9
2023-03-02T02:26:00.000Z,1025.9
2023-03-02T02:27:16.503Z,1025.9
2023-03-02T02:28:31.000Z,1026
2023-03-02T02:29:46.000Z,1025.9
2023-03-02T02:32:18.000Z,1026
2023-03-02T02:33:35.000Z,1026
2023-03-02T02:34:51.000Z,1026
2023-03-02T02:36:07.000Z,1026
2023-03-02T02:37:23.000Z,1025.9
2023-03-02T02:38:39.855Z,1026
2023-03-02T02:39:56.010Z,1025.9
2023-03-02T02:41:11.000Z,1025.9
2023-03-02T02:42:28.000Z,1025.9
2023-03-02T02:43:44.000Z,1025.8
2023-03-02T02:45:00.000Z,1025.8
2023-03-02T02:46:15.000Z,1025.9
2023-03-02T02:47:31.000Z,1025.8
2023-03-02T02:48:47.000Z,1025.7
2023-03-02T02:50:03.000Z,1025.8
2023-03-02T02:51:20.000Z,1025.8
2023-03-02T02:52:36.481Z,1025.8
2023-03-02T02:53:52.626Z,1025.7
2023-03-02T02:55:08.000Z,1025.7
2023-03-02T02:56:23.000Z,1025.6
2023-03-02T02:57:38.000Z,1025.7
2023-03-02T02:58:55.000Z,1025.6
2023-03-02T03:00:11.000Z,1025.7
2023-03-02T03:01:27.000Z,1025.6
2023-03-02T03:02:43.000Z,1025.6
2023-03-02T03:03:59.000Z,1025.6
2023-03-02T03:05:15.000Z,1025.6
2023-03-02T03:06:30.000Z,1025.6
2023-03-02T03:07:46.000Z,1025.7
2023-03-02T03:09:02.465Z,1025.6
2023-03-02T03:10:18.000Z,1025.6
2023-03-02T03:11:34.000Z,1025.6
2023-03-02T03:12:50.000Z,1025.6
2023-03-02T03:14:06.000Z,1025.6
2023-03-02T03:15:22.000Z,1025.7
2023-03-02T03:16:39.000Z,1025.6
2023-03-02T03:17:55.502Z,1025.6
2023-03-02T03:19:11.000Z,1025.6
2023-03-02T03:20:27.000Z,1025.6
2023-03-02T03:21:43.922Z,1025.6
2023-03-02T03:22:59.000Z,1025.5
2023-03-02T03:24:14.000Z,1025.5
2023-03-02T03:25:31.000Z,1025.6
2023-03-02T03:26:47.000Z,1025.6
2023-03-02T03:28:03.000Z,1025.6
2023-03-02T03:29:19.000Z,1025.6
2023-03-02T03:30:35.000Z,1025.5
2023-03-02T03:31:51.000Z,1025.7
2023-03-02T03:33:08.251Z,1025.6
2023-03-02T03:34:24.000Z,1025.7
2023-03-02T03:35:40.000Z,1025.7
2023-03-02T03:36:56.000Z,1025.7
2023-03-02T03:38:12.000Z,1025.6
2023-03-02T03:39:28.000Z,1025.6
2023-03-02T03:40:44.144Z,1025.7
2023-03-02T03:42:00.000Z,1025.6
2023-03-02T03:43:16.000Z,1025.7
2023-03-02T03:44:32.000Z,1025.7
2023-03-02T03:45:48.000Z,1025.7
2023-03-02T03:47:04.000Z,1025.6
2023-03-02T03:48:19.000Z,1025.7
2023-03-02T03:50:51.000Z,1025.6
2023-03-02T03:52:07.503Z,1025.7
2023-03-02T03:53:23.000Z,1025.7
2023-03-02T03:54:39.000Z,1025.6
2023-03-02T03:55:55.000Z,1025.6
2023-03-02T03:57:10.000Z,1025.7
2023-03-02T03:58:26.000Z,1025.7
2023-03-02T03:59:42.000Z,1025.7
2023-03-02T04:00:58.000Z,1025.7
2023-03-02T04:02:14.000Z,1025.7
2023-03-02T04:03:30.000Z,1025.7
2023-03-02T04:06:02.000Z,1025.6
2023-03-02T04:07:19.000Z,1025.6
2023-03-02T04:08:35.000Z,1025.6
2023-03-02T04:09:51.000Z,1025.6
2023-03-02T04:11:07.000Z,1025.6
2023-03-02T04:12:23.000Z,1025.6
2023-03-02T04:13:39.000Z,1025.5
2023-03-02T04:14:54.000Z,1025.5
2023-03-02T04:16:11.000Z,1025.6
2023-03-02T04:17:27.000Z,1025.6
2023-03-02T04:18:43.000Z,1025.6
2023-03-02T04:19:59.000Z,1025.6
2023-03-02T04:21:15.000Z,1025.6
2023-03-02T04:22:31.000Z,1025.5
2023-03-02T04:23:47.000Z,1025.6
2023-03-02T04:25:04.000Z,1025.6
2023-03-02T04:26:20.000Z,1025.5
2023-03-02T04:27:36.000Z,1025.5
2023-03-02T04:28:51.000Z,1025.5
2023-03-02T04:30:06.000Z,1025.5
2023-03-02T04:31:22.000Z,1025.5
2023-03-02T04:32:39.000Z,1025.5
2023-03-02T04:33:54.000Z,1025.5
2023-03-02T04:35:09.000Z,1025.5
2023-03-02T04:36:25.000Z,1025.5
2023-03-02T04:37:41.897Z,1025.5
2023-03-02T04:38:58.041Z,1025.5
2023-03-02T04:40:13.000Z,1025.5
2023-03-02T04:41:30.000Z,1025.5
2023-03-02T04:42:46.000Z,1025.5
2023-03-02T04:44:02.000Z,1025.5
2023-03-02T04:45:18.000Z,1025.5
2023-03-02T04:46:34.000Z,1025.5
2023-03-02T04:47:50.000Z,1025.5
2023-03-02T04:49:06.000Z,1025.5
2023-03-02T04:50:23.000Z,1025.5
2023-03-02T04:51:38.000Z,1025.4
2023-03-02T04:52:54.000Z,1025.5
2023-03-02T04:54:10.000Z,1025.5
2023-03-02T04:55:26.000Z,1025.5
2023-03-02T04:56:43.108Z,1025.5
2023-03-02T04:57:59.000Z,1025.5
2023-03-02T04:59:15.000Z,1025.5
2023-03-02T05:00:30.000Z,1025.5
2023-03-02T05:01:45.000Z,1025.5
2023-03-02T05:03:00.900Z,1025.5
2023-03-02T05:04:15.000Z,1025.4
2023-03-02T05:05:31.000Z,1025.5
2023-03-02T05:06:48.000Z,1025.5
2023-03-02T05:08:04.000Z,1025.5
2023-03-02T05:09:20.646Z,1025.5
2023-03-02T05:10:36.000Z,1025.5
2023-03-02T05:11:52.000Z,1025.4
2023-03-02T05:13:08.000Z,1025.4
2023-03-02T05:14:25.000Z,1025.4
2023-03-02T05:15:41.000Z,1025.4
2023-03-02T05:16:57.000Z,1025.4
2023-03-02T05:18:13.000Z,1025.4
2023-03-02T05:19:29.000Z,1025.4
2023-03-02T05:20:44.000Z,1025.4
2023-03-02T05:22:00.000Z,1025.4
2023-03-02T05:23:17.270Z,1025.3
2023-03-02T05:24:33.000Z,1025.3
2023-03-02T05:25:49.000Z,1025.3
2023-03-02T05:27:05.000Z,1025.3
2023-03-02T05:28:21.000Z,1025.3
2023-03-02T05:29:36.000Z,1025.3
2023-03-02T05:30:51.000Z,1025.3
2023-03-02T05:32:08.000Z,1025.3
2023-03-02T05:33:24.000Z,1025.3
2023-03-02T05:34:39.000Z,1025.3
2023-03-02T05:35:54.000Z,1025.3
2023-03-02T05:37:10.000Z,1025.2
2023-03-02T05:38:26.000Z,1025.3
2023-03-02T05:39:43.000Z,1025.3
2023-03-02T05:40:59.000Z,1025.2
2023-03-02T05:42:15.000Z,1025.3
2023-03-02T05:43:31.000Z,1025.3
2023-03-02T05:44:47.000Z,1025.3
2023-03-02T05:46:03.979Z,1025.2
2023-03-02T05:47:19.000Z,1025.3
2023-03-02T05:48:36.000Z,1025.2
2023-03-02T05:49:52.000Z,1025.2
2023-03-02T05:51:08.000Z,1025.2
2023-03-02T05:52:23.725Z,1025.2
2023-03-02T05:53:39.000Z,1025.2
2023-03-02T05:54:55.000Z,1025.2
2023-03-02T05:56:11.000Z,1025.2
2023-03-02T05:57:28.000Z,1025.2
2023-03-02T05:58:43.000Z,1025.1
2023-03-02T05:59:59.000Z,1025.2
2023-03-02T06:01:15.000Z,1025.2
2023-03-02T06:02:31.000Z,1025.1
2023-03-02T06:03:46.000Z,1025.1
2023-03-02T06:05:02.000Z,1025.1
2023-03-02T06:06:17.000Z,1025.1
2023-03-02T06:07:32.000Z,1025.1
2023-03-02T06:08:48.000Z,1025.1
2023-03-02T06:10:04.000Z,1025.1
2023-03-02T06:11:20.000Z,1025.1
2023-03-02T06:12:36.000Z,1025.1
2023-03-02T06:13:53.000Z,1025.1
2023-03-02T06:15:09.000Z,1025.1
2023-03-02T06:16:25.000Z,1025.2
2023-03-02T06:17:41.757Z,1025.1
2023-03-02T06:18:57.000Z,1025.1
2023-03-02T06:20:13.000Z,1025.1
2023-03-02T06:21:29.000Z,1025.1
2023-03-02T06:22:46.000Z,1025.2
2023-03-02T06:24:01.000Z,1025.1
2023-03-02T06:25:17.000Z,1025.2
2023-03-02T06:26:33.000Z,1025.1
2023-03-02T06:27:49.000Z,1025.2
2023-03-02T06:29:05.000Z,1025.2
2023-03-02T06:30:22.000Z,1025.1
2023-03-02T06:31:38.000Z,1025.1
2023-03-02T06:32:54.000Z,1025.2
2023-03-02T06:34:10.000Z,1025.2
2023-03-02T06:35:26.000Z,1025.2
2023-03-02T06:36:42.000Z,1025.2
2023-03-02T06:37:57.000Z,1025.2
2023-03-02T06:39:13.000Z,1025.2
2023-03-02T06:40:29.438Z,1025.1
2023-03-02T06:41:44.000Z,1025.2
2023-03-02T06:42:59.000Z,1025.1
2023-03-02T06:44:15.000Z,1025.2
2023-03-02T06:45:31.000Z,1025.2
2023-03-02T06:46:47.000Z,1025.2
2023-03-02T06:48:04.000Z,1025.1
2023-03-02T06:49:20.000Z,1025.2
2023-03-02T06:50:36.000Z,1025.2
2023-03-02T06:51:52.000Z,1025.2
2023-03-02T06:53:08.000Z,1025.2
2023-03-02T06:54:24.000Z,1025.2
2023-03-02T06:55:41.000Z,1025.2
2023-03-02T06:56:57.000Z,1025.3
2023-03-02T06:58:13.000Z,1025.3
2023-03-02T06:59:28.000Z,1025.2
2023-03-02T07:02:00.000Z,1025.2
2023-03-02T07:03:16.000Z,1025.2
2023-03-02T07:04:33.000Z,1025.2
2023-03-02T07:05:49.000Z,1025.2
2023-03-02T07:07:05.000Z,1025.2
2023-03-02T07:08:21.713Z,1025.2
2023-03-02T07:09:36.000Z,1025.1
2023-03-02T07:10:51.000Z,1025.2
2023-03-02T07:12:07.000Z,1025.1
2023-03-02T07:13:23.000Z,1025.1
2023-03-02T07:14:39.000Z,1025.1
2023-03-02T07:15:54.000Z,1025.2
2023-03-02T07:17:10.000Z,1025.1
2023-03-02T07:18:26.000Z,1025.2
2023-03-02T07:19:42.000Z,1025.1
2023-03-02T07:20:59.265Z,1025.2
2023-03-02T07:22:15.000Z,1025.1
2023-03-02T07:23:31.000Z,1025.2
2023-03-02T07:24:47.000Z,1025.1
2023-03-02T07:26:03.842Z,1025.2
2023-03-02T07:27:19.000Z,1025.2
2023-03-02T07:28:35.000Z,1025.1
2023-03-02T07:29:52.000Z,1025.1
2023-03-02T07:31:08.434Z,1025.2
2023-03-02T07:32:23.000Z,1025.2
2023-03-02T07:33:39.000Z,1025.2
2023-03-02T07:34:55.000Z,1025.1
2023-03-02T07:36:12.037Z,1025.1
2023-03-02T07:37:27.000Z,1025.1
2023-03-02T07:38:44.000Z,1025.1
2023-03-02T07:40:00.000Z,1025.2
2023-03-02T07:41:16.000Z,1025.1
2023-03-02T07:42:32.000Z,1025.1
2023-03-02T07:43:48.000Z,1025.2
2023-03-02T07:45:04.000Z,1025.2
2023-03-02T07:46:19.000Z,1025.3
2023-03-02T07:47:35.000Z,1025.2
2023-03-02T07:48:51.000Z,1025.3
2023-03-02T07:50:07.000Z,1025.3
2023-03-02T07:51:22.000Z,1025.3
2023-03-02T07:52:37.000Z,1025.3
2023-03-02T07:53:53.000Z,1025.3
2023-03-02T07:55:10.000Z,1025.3
2023-03-02T07:56:26.000Z,1025.4
2023-03-02T07:57:42.000Z,1025.4
2023-03-02T07:58:58.000Z,1025.5
2023-03-02T08:00:14.000Z,1025.5
2023-03-02T08:01:30.000Z,1025.5
2023-03-02T08:02:46.000Z,1025.5
2023-03-02T08:04:03.000Z,1025.5
2023-03-02T08:05:19.000Z,1025.5
2023-03-02T08:06:35.000Z,1025.5
2023-03-02T08:07:51.000Z,1025.5
2023-03-02T08:09:06.000Z,1025.5
2023-03-02T08:10:22.000Z,1025.5
2023-03-02T08:11:38.000Z,1025.6
2023-03-02T08:12:55.000Z,1025.5
2023-03-02T08:14:11.000Z,1025.5
2023-03-02T08:15:27.000Z,1025.6
2023-03-02T08:16:43.000Z,1025.5
2023-03-02T08:17:59.000Z,1025.5
2023-03-02T08:19:15.000Z,1025.5
2023-03-02T08:20:32.000Z,1025.5
2023-03-02T08:21:48.000Z,1025.5
2023-03-02T08:23:03.000Z,1025.5
2023-03-02T08:24:18.000Z,1025.5
2023-03-02T08:25:33.000Z,1025.4
2023-03-02T08:26:48.000Z,1025.5
2023-03-02T08:28:04.000Z,1025.5
2023-03-02T08:29:21.348Z,1025.5
2023-03-02T08:30:37.000Z,1025.4
2023-03-02T08:33:09.000Z,1025.4
2023-03-02T08:34:25.000Z,1025.4
2023-03-02T08:35:41.000Z,1025.4
2023-03-02T08:36:57.000Z,1025.4
2023-03-02T08:38:14.000Z,1025.4
2023-03-02T08:39:30.000Z,1025.4
2023-03-02T08:42:02.000Z,1025.4
2023-03-02T08:43:18.000Z,1025.5
2023-03-02T08:44:33.000Z,1025.4
2023-03-02T08:45:49.000Z,1025.5
2023-03-02T08:47:05.425Z,1025.5
2023-03-02T08:48:21.000Z,1025.5
2023-03-02T08:49:37.000Z,1025.5
2023-03-02T08:50:53.000Z,1025.5
2023-03-02T08:52:09.000Z,1025.5
2023-03-02T08:53:25.000Z,1025.5
2023-03-02T08:54:42.000Z,1025.5
2023-03-02T08:55:58.000Z,1025.5
2023-03-02T08:57:14.000Z,1025.5
2023-03-02T08:58:29.000Z,1025.5
2023-03-02T08:59:44.000Z,1025.4
2023-03-02T09:01:00.000Z,1025.4
2023-03-02T09:02:16.000Z,1025.4
2023-03-02T09:03:33.000Z,1025.4
2023-03-02T09:04:49.000Z,1025.5
2023-03-02T09:06:05.000Z,1025.5
2023-03-02T09:07:21.000Z,1025.5
2023-03-02T09:08:37.000Z,1025.4
2023-03-02T09:09:54.100Z,1025.5
2023-03-02T09:11:10.000Z,1025.4
2023-03-02T09:12:26.000Z,1025.4
2023-03-02T09:13:42.000Z,1025.4
2023-03-02T09:14:58.000Z,1025.4
2023-03-02T09:16:13.000Z,1025.4
2023-03-02T09:17:29.000Z,1025.3
2023-03-02T09:18:45.000Z,1025.4
2023-03-02T09:20:02.000Z,1025.4
2023-03-02T09:21:18.000Z,1025.4
2023-03-02T09:22:34.000Z,1025.4
2023-03-02T09:23:50.000Z,1025.3
2023-03-02T09:25:05.000Z,1025.4
2023-03-02T09:26:20.000Z,1025.4
2023-03-02T09:27:36.000Z,1025.3
2023-03-02T09:28:52.000Z,1025.4
2023-03-02T09:30:07.000Z,1025.3
2023-03-02T09:31:23.000Z,1025.3
2023-03-02T09:32:39.000Z,1025.3
2023-03-02T09:33:55.000Z,1025.3
2023-03-02T09:35:11.000Z,1025.2
2023-03-02T09:36:28.000Z,1025.3
2023-03-02T09:37:44.000Z,1025.3
2023-03-02T09:39:00.000Z,1025.2
2023-03-02T09:40:16.000Z,1025.2
2023-03-02T09:41:32.000Z,1025.3
2023-03-02T09:42:48.000Z,1025.2
2023-03-02T09:44:05.167Z,1025.2
2023-03-02T09:45:21.000Z,1025.2
2023-03-02T09:46:36.000Z,1025.3
2023-03-02T09:47:52.000Z,1025.2
2023-03-02T09:49:08.000Z,1025.2
2023-03-02T09:50:24.919Z,1025.2
2023-03-02T09:51:40.000Z,1025.2
2023-03-02T09:52:57.216Z,1025.2
2023-03-02T09:54:13.000Z,1025.1
2023-03-02T09:55:28.000Z,1025.2
2023-03-02T09:56:43.000Z,1025.2
2023-03-02T09:57:59.000Z,1025.2
2023-03-02T09:59:15.000Z,1025.2
2023-03-02T10:00:30.000Z,1025.3
2023-03-02T10:01:46.000Z,1025.2
2023-03-02T10:03:02.000Z,1025.2
2023-03-02T10:04:18.000Z,1025.2
2023-03-02T10:05:34.000Z,1025.2
2023-03-02T10:06:50.000Z,1025.2
2023-03-02T10:08:06.000Z,1025.2
2023-03-02T10:09:22.000Z,1025.2
2023-03-02T10:10:39.000Z,1025.1
2023-03-02T10:11:55.000Z,1025.2
2023-03-02T10:13:10.000Z,1025.2
2023-03-02T10:14:26.000Z,1025.2
2023-03-02T10:15:42.000Z,1025.2
2023-03-02T10:16:58.000Z,1025.2
2023-03-02T10:18:15.000Z,1025.3
2023-03-02T10:19:31.000Z,1025.3
2023-03-02T10:20:47.000Z,1025.2
2023-03-02T10:22:03.000Z,1025.2
2023-03-02T10:23:19.000Z,1025.2
2023-03-02T10:24:35.000Z,1025.2
2023-03-02T10:25:51.000Z,1025.2
2023-03-02T10:27:08.280Z,1025.2
2023-03-02T10:28:24.000Z,1025.2
2023-03-02T10:29:39.594Z,1025.2
2023-03-02T10:30:55.739Z,1025.2
2023-03-02T10:32:11.000Z,1025.2
2023-03-02T10:33:27.000Z,1025.2
2023-03-02T10:34:43.000Z,1025.2
2023-03-02T10:36:00.000Z,1025.2
2023-03-02T10:37:16.000Z,1025.2
2023-03-02T10:38:32.000Z,1025.1
2023-03-02T10:41:04.000Z,1025.2
2023-03-02T10:42:19.000Z,1025.1
2023-03-02T10:43:35.000Z,1025.2
2023-03-02T10:44:50.000Z,1025.1
2023-03-02T10:46:05.000Z,1025.2
2023-03-02T10:47:21.000Z,1025.2
2023-03-02T10:48:37.000Z,1025.2
2023-03-02T10:49:53.000Z,1025.1
2023-03-02T10:51:09.000Z,1025.1
2023-03-02T10:52:26.000Z,1025.1
2023-03-02T10:53:42.000Z,1025.1
2023-03-02T10:54:58.619Z,1025.1
2023-03-02T10:56:14.772Z,1025.1
2023-03-02T10:57:30.000Z,1025.1
2023-03-02T10:58:46.000Z,1025.1
2023-03-02T11:00:02.000Z,1025
2023-03-02T11:01:19.000Z,1025
2023-03-02T11:02:34.000Z,1025
2023-03-02T11:03:50.000Z,1025
2023-03-02T11:05:06.810Z,1025
2023-03-02T11:06:22.000Z,1025
2023-03-02T11:07:38.000Z,1025
2023-03-02T11:08:55.000Z,1025
2023-03-02T11:10:11.000Z,1025.1
2023-03-02T11:11:26.000Z,1025
2023-03-02T11:12:41.732Z,1025
2023-03-02T11:13:57.000Z,1025
2023-03-02T11:15:13.000Z,1025
2023-03-02T11:16:29.000Z,1024.9
2023-03-02T11:17:46.000Z,1025
2023-03-02T11:19:02.000Z,1025
2023-03-02T11:20:18.000Z,1025
2023-03-02T11:21:34.000Z,1025
2023-03-02T11:22:50.000Z,1025
2023-03-02T11:24:06.000Z,1025
2023-03-02T11:25:22.000Z,1024.9
2023-03-02T11:26:39.000Z,1024.9
2023-03-02T11:27:55.000Z,1024.9
2023-03-02T11:29:10.000Z,1024.9
2023-03-02T11:30:26.000Z,1024.9
2023-03-02T11:31:42.000Z,1024.9
2023-03-02T11:32:58.000Z,1024.9
2023-03-02T11:34:15.000Z,1024.9
2023-03-02T11:35:31.000Z,1024.8
2023-03-02T11:36:47.000Z,1024.9
2023-03-02T11:39:18.000Z,1024.8
2023-03-02T11:40:33.000Z,1024.8
2023-03-02T11:43:05.000Z,1024.8
2023-03-02T11:44:20.000Z,1024.8
2023-03-02T11:45:35.000Z,1024.8
2023-03-02T11:46:51.000Z,1024.8
2023-03-02T11:48:07.000Z,1024.7
2023-03-02T11:49:23.000Z,1024.7
2023-03-02T11:50:40.000Z,1024.7
2023-03-02T11:51:56.000Z,1024.7
2023-03-02T11:53:12.000Z,1024.7
2023-03-02T11:54:28.000Z,1024.7
2023-03-02T11:55:44.000Z,1024.7
2023-03-02T11:57:00.000Z,1024.6
2023-03-02T11:58:16.000Z,1024.6
2023-03-02T11:59:33.000Z,1024.6
2023-03-02T12:00:49.000Z,1024.6
2023-03-02T12:02:04.000Z,1024.5
2023-03-02T12:03:20.000Z,1024.5
2023-03-02T12:04:36.000Z,1024.5
2023-03-02T12:05:52.000Z,1024.5
2023-03-02T12:07:08.000Z,1024.5
2023-03-02T12:08:25.000Z,1024.5
2023-03-02T12:09:41.000Z,1024.5
2023-03-02T12:10:57.000Z,1024.5
2023-03-02T12:12:13.000Z,1024.4
2023-03-02T12:13:28.000Z,1024.5
2023-03-02T12:14:43.000Z,1024.4
2023-03-02T12:16:00.000Z,1024.4
2023-03-02T12:17:16.000Z,1024.4
2023-03-02T12:18:32.000Z,1024.4
2023-03-02T12:19:48.707Z,1024.4
2023-03-02T12:21:04.000Z,1024.4
2023-03-02T12:22:20.992Z,1024.3
2023-03-02T12:23:35.000Z,1024.3
2023-03-02T12:24:51.000Z,1024.4
2023-03-02T12:26:07.000Z,1024.3
2023-03-02T12:27:23.000Z,1024.3
2023-03-02T12:28:39.000Z,1024.3
2023-03-02T12:29:55.000Z,1024.3
2023-03-02T12:31:12.064Z,1024.2
2023-03-02T12:32:27.000Z,1024.3
2023-03-02T12:33:44.000Z,1024.2
2023-03-02T12:35:00.000Z,1024.2
2023-03-02T12:36:16.000Z,1024.2
2023-03-02T12:37:32.000Z,1024.2
2023-03-02T12:38:48.000Z,1024.2
2023-03-02T12:40:04.000Z,1024.2
2023-03-02T12:41:20.000Z,1024.2
2023-03-02T12:42:36.000Z,1024.2
2023-03-02T12:43:52.000Z,1024.1
2023-03-02T12:45:08.000Z,1024.1
2023-03-02T12:46:24.000Z,1024.1
2023-03-02T12:47:40.000Z,1024.1
2023-03-02T12:48:56.000Z,1024
2023-03-02T12:50:12.305Z,1024.1
2023-03-02T12:51:27.000Z,1024
2023-03-02T12:52:43.000Z,1024.1
2023-03-02T12:53:59.000Z,1024.1
2023-03-02T12:55:14.000Z,1024.1
2023-03-02T12:56:29.000Z,1024
2023-03-02T12:57:46.000Z,1024
2023-03-02T12:59:02.000Z,1024
2023-03-02T13:00:18.000Z,1024.1
2023-03-02T13:01:34.000Z,1024
2023-03-02T13:02:50.000Z,1024
2023-03-02T13:04:06.000Z,1024
2023-03-02T13:05:22.000Z,1024
2023-03-02T13:06:39.000Z,1023.9
2023-03-02T13:07:55.000Z,1023.9
2023-03-02T13:09:11.000Z,1023.9
2023-03-02T13:10:27.000Z,1023.9
2023-03-02T13:11:43.856Z,1023.9
2023-03-02T13:12:59.019Z,1023.9
2023-03-02T13:14:14.000Z,1023.8
2023-03-02T13:15:31.000Z,1023.8
2023-03-02T13:16:47.000Z,1023.8
2023-03-02T13:18:03.000Z,1023.9
2023-03-02T13:19:19.000Z,1023.8
2023-03-02T13:20:35.000Z,1023.8
2023-03-02T13:21:50.000Z,1023.8
2023-03-02T13:23:06.000Z,1023.7
2023-03-02T13:24:22.000Z,1023.8
2023-03-02T13:25:38.000Z,1023.8
2023-03-02T13:26:53.000Z,1023.8
2023-03-02T13:28:08.000Z,1023.7
2023-03-02T13:29:24.000Z,1023.6
2023-03-02T13:30:40.000Z,1023.7
2023-03-02T13:31:57.000Z,1023.7
2023-03-02T13:33:13.000Z,1023.6
2023-03-02T13:34:29.601Z,1023.7
2023-03-02T13:35:45.000Z,1023.7
2023-03-02T13:37:01.896Z,1023.6
2023-03-02T13:38:17.000Z,1023.6
2023-03-02T13:39:33.000Z,1023.6
2023-03-02T13:40:50.000Z,1023.6
2023-03-02T13:42:06.478Z,1023.6
2023-03-02T13:43:22.000Z,1023.6
2023-03-02T13:44:37.000Z,1023.6
2023-03-02T13:45:53.000Z,1023.6
2023-03-02T13:47:09.000Z,1023.5
2023-03-02T13:48:25.000Z,1023.5
2023-03-02T13:49:42.365Z,1023.5
2023-03-02T13:50:58.000Z,1023.4
2023-03-02T13:52:14.000Z,1023.5
2023-03-02T13:53:29.000Z,1023.4
2023-03-02T13:54:44.998Z,1023.4
2023-03-02T13:55:59.000Z,1023.4
2023-03-02T13:57:15.000Z,1023.4
2023-03-02T13:58:31.000Z,1023.3
2023-03-02T13:59:47.000Z,1023.4
2023-03-02T14:01:03.000Z,1023.4
2023-03-02T14:02:19.919Z,1023.3
2023-03-02T14:03:35.000Z,1023.3
2023-03-02T14:04:51.000Z,1023.2
2023-03-02T14:06:08.000Z,1023.3
2023-03-02T14:07:24.000Z,1023.3
2023-03-02T14:08:40.000Z,1023.2
2023-03-02T14:09:56.000Z,1023.2
2023-03-02T14:11:12.000Z,1023.1
2023-03-02T14:12:28.000Z,1023.1
2023-03-02T14:13:44.000Z,1023.1
2023-03-02T14:15:00.000Z,1023.1
2023-03-02T14:16:16.000Z,1023.1
2023-03-02T14:17:32.711Z,1023.1
2023-03-02T14:18:48.000Z,1023.1
2023-03-02T14:20:04.000Z,1023
2023-03-02T14:21:20.000Z,1023
2023-03-02T14:22:36.000Z,1023
2023-03-02T14:25:07.000Z,1022.9
2023-03-02T14:26:22.000Z,1022.9
2023-03-02T14:27:37.000Z,1022.9
2023-03-02T14:28:53.000Z,1022.9
2023-03-02T14:30:10.000Z,1022.9
2023-03-02T14:31:26.409Z,1022.9
2023-03-02T14:32:42.000Z,1022.8
2023-03-02T14:33:58.000Z,1022.8
2023-03-02T14:35:14.000Z,1022.8
2023-03-02T14:36:30.974Z,1022.8
2023-03-02T14:37:46.000Z,1022.8
2023-03-02T14:39:03.000Z,1022.8
2023-03-02T14:40:19.000Z,1022.8
2023-03-02T14:41:35.000Z,1022.7
2023-03-02T14:42:51.000Z,1022.7
2023-03-02T14:44:06.000Z,1022.7
2023-03-02T14:45:22.000Z,1022.6
2023-03-02T14:46:38.000Z,1022.6
2023-03-02T14:47:55.000Z,1022.6
2023-03-02T14:49:11.000Z,1022.6
2023-03-02T14:50:27.000Z,1022.6
2023-03-02T14:51:43.000Z,1022.7
2023-03-02T14:52:58.931Z,1022.7
2023-03-02T14:54:14.095Z,1022.6
2023-03-02T14:55:30.000Z,1022.6
2023-03-02T14:56:46.000Z,1022.6
2023-03-02T14:58:02.000Z,1022.6
2023-03-02T14:59:18.000Z,1022.6
2023-03-02T15:00:34.000Z,1022.6
2023-03-02T15:01:50.000Z,1022.6
2023-03-02T15:03:06.000Z,1022.6
2023-03-02T15:04:23.000Z,1022.6
2023-03-02T15:05:39.000Z,1022.6
2023-03-02T15:06:55.000Z,1022.6
2023-03-02T15:08:11.000Z,1022.6
2023-03-02T15:09:27.000Z,1022.6
2023-03-02T15:10:43.000Z,1022.6
2023-03-02T15:11:58.000Z,1022.6
2023-03-02T15:13:15.000Z,1022.6
2023-03-02T15:14:31.000Z,1022.5
2023-03-02T15:15:47.000Z,1022.6
2023-03-02T15:17:03.000Z,1022.5
2023-03-02T15:18:19.000Z,1022.5
2023-03-02T15:19:35.000Z,1022.4
2023-03-02T15:20:50.000Z,1022.5
2023-03-02T15:22:06.000Z,1022.5
2023-03-02T15:23:22.000Z,1022.5
2023-03-02T15:24:37.000Z,1022.5
2023-03-02T15:25:52.000Z,1022.5
2023-03-02T15:27:08.000Z,1022.5
2023-03-02T15:28:24.000Z,1022.5
2023-03-02T15:29:41.307Z,1022.4
2023-03-02T15:30:57.447Z,1022.5
2023-03-02T15:32:13.624Z,1022.5
2023-03-02T15:33:29.000Z,1022.5
2023-03-02T15:34:45.000Z,1022.5
2023-03-02T15:36:01.000Z,1022.5
2023-03-02T15:37:17.000Z,1022.5
2023-03-02T15:38:34.000Z,1022.5
2023-03-02T15:39:50.000Z,1022.5
2023-03-02T15:41:06.000Z,1022.5
2023-03-02T15:42:21.000Z,1022.5
2023-03-02T15:43:37.000Z,1022.5
2023-03-02T15:44:53.000Z,1022.5
2023-03-02T15:46:10.000Z,1022.5
2023-03-02T15:47:26.377Z,1022.5
2023-03-02T15:48:42.527Z,1022.4
2023-03-02T15:49:58.000Z,1022.5
2023-03-02T15:51:13.000Z,1022.4
2023-03-02T15:52:28.000Z,1022.5
2023-03-02T15:53:43.000Z,1022.5
2023-03-02T15:54:59.000Z,1022.4
2023-03-02T15:56:15.000Z,1022.5
2023-03-02T15:57:31.000Z,1022.4
2023-03-02T15:58:47.000Z,1022.4
2023-03-02T16:00:03.000Z,1022.4
2023-03-02T16:01:19.000Z,1022.5
2023-03-02T16:02:36.000Z,1022.5
2023-03-02T16:03:52.000Z,1022.5
2023-03-02T16:05:08.000Z,1022.4
2023-03-02T16:06:24.000Z,1022.5
2023-03-02T16:07:40.000Z,1022.4